sensor_id;sensor_type;location;lat;lon;timestamp;P1;durP1;ratioP1;P2;durP2;ratioP2
37365;SDS011;23239;51.504;7.456;2022-08-14T00:00:44;6.1;;;4.3;;
37365;SDS011;23239;51.504;7.456;2022-08-14T00:05:43;5;;;4.4;;
37365;SDS011;23239;51.504;7.456;2022-08-14T00:10:43;7.1;;;4.6;;
37365;SDS011;23239;51.504;7.456;2022-08-14T00:15:44;7.9;;;4.7;;
37365;SDS011;23239;51.504;7.456;2022-08-14T00:20:43;5.5;;;4.7;;
37365;SDS011;23239;51.504;7.456;2022-08-14T00:25:44;7.6;;;4.7;;
37365;SDS011;23239;51.504;7.456;2022-08-14T00:30:44;7.5;;;4.8;;
37365;SDS011;23239;51.504;7.456;2022-08-14T00:35:43;5.2;;;4.4;;
37365;SDS011;23239;51.504;7.456;2022-08-14T00:40:43;7.2;;;4.5;;
37365;SDS011;23239;51.504;7.456;2022-08-14T00:45:43;6.4;;;4.9;;
37365;SDS011;23239;51.504;7.456;2022-08-14T00:50:43;6.1;;;4.7;;
37365;SDS011;23239;51.504;7.456;2022-08-14T00:55:43;5.7;;;4.6;;
37365;SDS011;23239;51.504;7.456;2022-08-14T01:00:43;6.8;;;4.8;;
37365;SDS011;23239;51.504;7.456;2022-08-14T01:05:44;7.7;;;4.9;;
37365;SDS011;23239;51.504;7.456;2022-08-14T01:10:43;6.4;;;4.8;;
37365;SDS011;23239;51.504;7.456;2022-08-14T01:15:43;6.3;;;5;;
37365;SDS011;23239;51.504;7.456;2022-08-14T01:20:43;6.4;;;4.4;;
37365;SDS011;23239;51.504;7.456;2022-08-14T01:25:43;5.4;;;4.7;;
37365;SDS011;23239;51.504;7.456;2022-08-14T01:30:43;8.4;;;5;;
37365;SDS011;23239;51.504;7.456;2022-08-14T01:35:43;6.3;;;4.7;;
37365;SDS011;23239;51.504;7.456;2022-08-14T01:40:44;9.5;;;5;;
37365;SDS011;23239;51.504;7.456;2022-08-14T01:45:43;7.6;;;5.5;;
37365;SDS011;23239;51.504;7.456;2022-08-14T01:50:43;6.6;;;5.7;;
37365;SDS011;23239;51.504;7.456;2022-08-14T01:55:43;9;;;5.3;;
37365;SDS011;23239;51.504;7.456;2022-08-14T02:00:43;7.4;;;5.5;;
37365;SDS011;23239;51.504;7.456;2022-08-14T02:05:43;6.4;;;5.5;;
37365;SDS011;23239;51.504;7.456;2022-08-14T02:10:43;8.8;;;5.3;;
37365;SDS011;23239;51.504;7.456;2022-08-14T02:15:43;5.8;;;5.2;;
37365;SDS011;23239;51.504;7.456;2022-08-14T02:20:43;6.8;;;5.3;;
37365;SDS011;23239;51.504;7.456;2022-08-14T02:25:43;7.4;;;5.5;;
37365;SDS011;23239;51.504;7.456;2022-08-14T02:30:43;6.8;;;5.4;;
37365;SDS011;23239;51.504;7.456;2022-08-14T02:35:43;7.5;;;5.9;;
37365;SDS011;23239;51.504;7.456;2022-08-14T02:40:43;7.8;;;5.8;;
37365;SDS011;23239;51.504;7.456;2022-08-14T02:45:43;8.2;;;6.1;;
37365;SDS011;23239;51.504;7.456;2022-08-14T02:50:43;7;;;5.8;;
37365;SDS011;23239;51.504;7.456;2022-08-14T02:55:44;8.5;;;6.3;;
37365;SDS011;23239;51.504;7.456;2022-08-14T03:00:43;8.5;;;6.3;;
37365;SDS011;23239;51.504;7.456;2022-08-14T03:05:43;9.5;;;6.1;;
37365;SDS011;23239;51.504;7.456;2022-08-14T03:10:43;8;;;6;;
37365;SDS011;23239;51.504;7.456;2022-08-14T03:15:43;9.2;;;6.4;;
37365;SDS011;23239;51.504;7.456;2022-08-14T03:20:43;7.2;;;6.5;;
37365;SDS011;23239;51.504;7.456;2022-08-14T03:25:44;10.7;;;6.8;;
37365;SDS011;23239;51.504;7.456;2022-08-14T03:30:43;10.5;;;6.8;;
37365;SDS011;23239;51.504;7.456;2022-08-14T03:35:43;7.5;;;6.7;;
37365;SDS011;23239;51.504;7.456;2022-08-14T03:40:44;8;;;6.9;;
37365;SDS011;23239;51.504;7.456;2022-08-14T03:45:43;9.1;;;7.2;;
37365;SDS011;23239;51.504;7.456;2022-08-14T03:50:43;8.9;;;6.5;;
37365;SDS011;23239;51.504;7.456;2022-08-14T03:55:43;7.5;;;6.7;;
37365;SDS011;23239;51.504;7.456;2022-08-14T04:00:43;9.1;;;7.6;;
37365;SDS011;23239;51.504;7.456;2022-08-14T04:05:43;7.9;;;6.7;;
37365;SDS011;23239;51.504;7.456;2022-08-14T04:10:43;8.5;;;7.1;;
37365;SDS011;23239;51.504;7.456;2022-08-14T04:15:43;8.4;;;6.3;;
37365;SDS011;23239;51.504;7.456;2022-08-14T04:20:43;7.7;;;6.9;;
37365;SDS011;23239;51.504;7.456;2022-08-14T04:25:43;9.2;;;7.1;;
37365;SDS011;23239;51.504;7.456;2022-08-14T04:30:43;10.4;;;7.7;;
37365;SDS011;23239;51.504;7.456;2022-08-14T04:35:43;10.4;;;7.4;;
37365;SDS011;23239;51.504;7.456;2022-08-14T04:40:43;9;;;7.5;;
37365;SDS011;23239;51.504;7.456;2022-08-14T04:45:44;7.7;;;6.8;;
37365;SDS011;23239;51.504;7.456;2022-08-14T04:50:50;8.1;;;7.3;;
37365;SDS011;23239;51.504;7.456;2022-08-14T04:55:44;9.3;;;7.3;;
37365;SDS011;23239;51.504;7.456;2022-08-14T05:00:44;8.6;;;6.9;;
37365;SDS011;23239;51.504;7.456;2022-08-14T05:05:43;9.4;;;7.5;;
37365;SDS011;23239;51.504;7.456;2022-08-14T05:10:45;9.9;;;7.9;;
37365;SDS011;23239;51.504;7.456;2022-08-14T05:15:43;8.6;;;7.5;;
37365;SDS011;23239;51.504;7.456;2022-08-14T05:20:45;10.8;;;7.7;;
37365;SDS011;23239;51.504;7.456;2022-08-14T05:25:43;9.6;;;7.6;;
37365;SDS011;23239;51.504;7.456;2022-08-14T05:30:44;8.9;;;8;;
37365;SDS011;23239;51.504;7.456;2022-08-14T05:35:43;8.8;;;7.9;;
37365;SDS011;23239;51.504;7.456;2022-08-14T05:40:44;9.5;;;8.5;;
37365;SDS011;23239;51.504;7.456;2022-08-14T05:45:43;9.4;;;8.2;;
37365;SDS011;23239;51.504;7.456;2022-08-14T05:50:43;10.4;;;8.4;;
37365;SDS011;23239;51.504;7.456;2022-08-14T05:55:43;9.7;;;7.9;;
37365;SDS011;23239;51.504;7.456;2022-08-14T06:00:44;11.5;;;8.5;;
37365;SDS011;23239;51.504;7.456;2022-08-14T06:05:44;13.8;;;8.3;;
37365;SDS011;23239;51.504;7.456;2022-08-14T06:10:44;10.9;;;8.1;;
37365;SDS011;23239;51.504;7.456;2022-08-14T06:15:44;10.2;;;8.3;;
37365;SDS011;23239;51.504;7.456;2022-08-14T06:20:43;10.3;;;7.9;;
37365;SDS011;23239;51.504;7.456;2022-08-14T06:25:43;9.6;;;8.1;;
37365;SDS011;23239;51.504;7.456;2022-08-14T06:30:44;10.9;;;8.1;;
37365;SDS011;23239;51.504;7.456;2022-08-14T06:35:44;12.1;;;7.9;;
37365;SDS011;23239;51.504;7.456;2022-08-14T06:40:43;8.6;;;7.7;;
37365;SDS011;23239;51.504;7.456;2022-08-14T06:45:44;8.8;;;7.8;;
37365;SDS011;23239;51.504;7.456;2022-08-14T06:50:44;11.9;;;7.9;;
37365;SDS011;23239;51.504;7.456;2022-08-14T06:55:44;12.1;;;7.9;;
37365;SDS011;23239;51.504;7.456;2022-08-14T07:00:44;11.8;;;7.8;;
37365;SDS011;23239;51.504;7.456;2022-08-14T07:05:43;9.6;;;8.6;;
37365;SDS011;23239;51.504;7.456;2022-08-14T07:10:44;10.9;;;9;;
37365;SDS011;23239;51.504;7.456;2022-08-14T07:15:44;9.7;;;8;;
37365;SDS011;23239;51.504;7.456;2022-08-14T07:20:43;9.3;;;8.3;;
37365;SDS011;23239;51.504;7.456;2022-08-14T07:25:44;9.7;;;8.4;;
37365;SDS011;23239;51.504;7.456;2022-08-14T07:30:43;8.5;;;7.6;;
37365;SDS011;23239;51.504;7.456;2022-08-14T07:35:43;8.6;;;7.4;;
37365;SDS011;23239;51.504;7.456;2022-08-14T07:40:43;8.4;;;7.5;;
37365;SDS011;23239;51.504;7.456;2022-08-14T07:45:44;10.4;;;8.2;;
37365;SDS011;23239;51.504;7.456;2022-08-14T07:50:44;9.7;;;8.3;;
37365;SDS011;23239;51.504;7.456;2022-08-14T07:55:44;9.9;;;8;;
37365;SDS011;23239;51.504;7.456;2022-08-14T08:00:44;9.5;;;7.9;;
37365;SDS011;23239;51.504;7.456;2022-08-14T08:05:43;10;;;7.9;;
37365;SDS011;23239;51.504;7.456;2022-08-14T08:10:44;8.8;;;7.7;;
37365;SDS011;23239;51.504;7.456;2022-08-14T08:15:44;11.7;;;8.5;;
37365;SDS011;23239;51.504;7.456;2022-08-14T08:20:44;8.5;;;7.7;;
37365;SDS011;23239;51.504;7.456;2022-08-14T08:25:45;11.7;;;9.6;;
37365;SDS011;23239;51.504;7.456;2022-08-14T08:30:46;8.4;;;7.5;;
37365;SDS011;23239;51.504;7.456;2022-08-14T08:35:43;9;;;7.6;;
37365;SDS011;23239;51.504;7.456;2022-08-14T08:40:44;8.6;;;7.7;;
37365;SDS011;23239;51.504;7.456;2022-08-14T08:45:48;8.6;;;7.8;;
37365;SDS011;23239;51.504;7.456;2022-08-14T08:50:44;8.7;;;7.8;;
37365;SDS011;23239;51.504;7.456;2022-08-14T08:55:44;8.9;;;7.7;;
37365;SDS011;23239;51.504;7.456;2022-08-14T09:00:45;8.8;;;7.8;;
37365;SDS011;23239;51.504;7.456;2022-08-14T09:05:52;8.2;;;7.4;;
37365;SDS011;23239;51.504;7.456;2022-08-14T09:10:44;7.6;;;6.9;;
37365;SDS011;23239;51.504;7.456;2022-08-14T09:15:45;7.7;;;7;;
37365;SDS011;23239;51.504;7.456;2022-08-14T09:20:46;7.6;;;6.9;;
37365;SDS011;23239;51.504;7.456;2022-08-14T09:25:44;8.2;;;6.8;;
37365;SDS011;23239;51.504;7.456;2022-08-14T09:30:44;7.3;;;6.6;;
37365;SDS011;23239;51.504;7.456;2022-08-14T09:35:48;7.3;;;6.5;;
37365;SDS011;23239;51.504;7.456;2022-08-14T09:40:46;8.8;;;6.7;;
37365;SDS011;23239;51.504;7.456;2022-08-14T09:45:44;7.1;;;6.3;;
37365;SDS011;23239;51.504;7.456;2022-08-14T09:50:44;8;;;6.6;;
37365;SDS011;23239;51.504;7.456;2022-08-14T09:55:44;6;;;5.3;;
37365;SDS011;23239;51.504;7.456;2022-08-14T10:00:46;6.7;;;6.1;;
37365;SDS011;23239;51.504;7.456;2022-08-14T10:05:44;6.7;;;5.8;;
37365;SDS011;23239;51.504;7.456;2022-08-14T10:10:44;6.1;;;5.2;;
37365;SDS011;23239;51.504;7.456;2022-08-14T10:15:44;10.4;;;5.9;;
37365;SDS011;23239;51.504;7.456;2022-08-14T10:20:50;6.3;;;5.7;;
37365;SDS011;23239;51.504;7.456;2022-08-14T10:25:44;6.3;;;5.7;;
37365;SDS011;23239;51.504;7.456;2022-08-14T10:30:44;6.7;;;6;;
37365;SDS011;23239;51.504;7.456;2022-08-14T10:35:44;7.8;;;5.9;;
37365;SDS011;23239;51.504;7.456;2022-08-14T10:40:44;6.8;;;6.2;;
37365;SDS011;23239;51.504;7.456;2022-08-14T10:45:51;8.9;;;6.7;;
37365;SDS011;23239;51.504;7.456;2022-08-14T10:50:44;7.8;;;6.3;;
37365;SDS011;23239;51.504;7.456;2022-08-14T10:55:44;10.2;;;6.4;;
37365;SDS011;23239;51.504;7.456;2022-08-14T11:00:53;6.9;;;6.2;;
37365;SDS011;23239;51.504;7.456;2022-08-14T11:05:44;9;;;6.7;;
37365;SDS011;23239;51.504;7.456;2022-08-14T11:10:44;7.6;;;6.4;;
37365;SDS011;23239;51.504;7.456;2022-08-14T11:15:44;10.9;;;6.5;;
37365;SDS011;23239;51.504;7.456;2022-08-14T11:20:45;7.2;;;6.5;;
37365;SDS011;23239;51.504;7.456;2022-08-14T11:25:44;6.9;;;6;;
37365;SDS011;23239;51.504;7.456;2022-08-14T11:30:44;6.3;;;5.7;;
37365;SDS011;23239;51.504;7.456;2022-08-14T11:35:46;7.2;;;6.5;;
37365;SDS011;23239;51.504;7.456;2022-08-14T11:40:44;6.4;;;5.8;;
37365;SDS011;23239;51.504;7.456;2022-08-14T11:45:44;6.5;;;5.6;;
37365;SDS011;23239;51.504;7.456;2022-08-14T11:50:45;6.2;;;5.7;;
37365;SDS011;23239;51.504;7.456;2022-08-14T11:55:44;6;;;5.5;;
37365;SDS011;23239;51.504;7.456;2022-08-14T12:00:44;7.6;;;5.6;;
37365;SDS011;23239;51.504;7.456;2022-08-14T12:05:44;5.9;;;5.4;;
37365;SDS011;23239;51.504;7.456;2022-08-14T12:10:44;6.3;;;5.7;;
37365;SDS011;23239;51.504;7.456;2022-08-14T12:15:46;6.6;;;5.9;;
37365;SDS011;23239;51.504;7.456;2022-08-14T12:20:44;6.2;;;5.7;;
37365;SDS011;23239;51.504;7.456;2022-08-14T12:25:44;5.8;;;5.2;;
37365;SDS011;23239;51.504;7.456;2022-08-14T12:30:44;6.8;;;5.5;;
37365;SDS011;23239;51.504;7.456;2022-08-14T12:35:44;6.4;;;5.5;;
37365;SDS011;23239;51.504;7.456;2022-08-14T12:40:44;5.8;;;5.3;;
37365;SDS011;23239;51.504;7.456;2022-08-14T12:45:45;5.9;;;5.4;;
37365;SDS011;23239;51.504;7.456;2022-08-14T12:50:44;6.1;;;5.5;;
37365;SDS011;23239;51.504;7.456;2022-08-14T12:55:44;6.1;;;5.5;;
37365;SDS011;23239;51.504;7.456;2022-08-14T13:00:46;6.1;;;5.5;;
37365;SDS011;23239;51.504;7.456;2022-08-14T13:05:44;5.6;;;5.1;;
37365;SDS011;23239;51.504;7.456;2022-08-14T13:10:44;5.5;;;5;;
37365;SDS011;23239;51.504;7.456;2022-08-14T13:15:45;6;;;5.2;;
37365;SDS011;23239;51.504;7.456;2022-08-14T13:20:44;6;;;5.3;;
37365;SDS011;23239;51.504;7.456;2022-08-14T13:25:44;5.5;;;5;;
37365;SDS011;23239;51.504;7.456;2022-08-14T13:30:44;5.1;;;4.7;;
37365;SDS011;23239;51.504;7.456;2022-08-14T13:35:44;5.5;;;5;;
37365;SDS011;23239;51.504;7.456;2022-08-14T13:40:44;6.1;;;5.1;;
37365;SDS011;23239;51.504;7.456;2022-08-14T13:45:44;5.2;;;4.8;;
37365;SDS011;23239;51.504;7.456;2022-08-14T13:50:44;5.3;;;4.8;;
37365;SDS011;23239;51.504;7.456;2022-08-14T13:55:44;5.4;;;4.9;;
37365;SDS011;23239;51.504;7.456;2022-08-14T14:00:44;5.5;;;5;;
37365;SDS011;23239;51.504;7.456;2022-08-14T14:05:44;5.6;;;5.1;;
37365;SDS011;23239;51.504;7.456;2022-08-14T14:10:44;6.1;;;5.5;;
37365;SDS011;23239;51.504;7.456;2022-08-14T14:15:44;5.4;;;4.9;;
37365;SDS011;23239;51.504;7.456;2022-08-14T14:20:44;5.4;;;4.9;;
37365;SDS011;23239;51.504;7.456;2022-08-14T14:25:44;5.2;;;4.7;;
37365;SDS011;23239;51.504;7.456;2022-08-14T14:30:44;4.9;;;4.5;;
37365;SDS011;23239;51.504;7.456;2022-08-14T14:35:44;5.1;;;4.3;;
37365;SDS011;23239;51.504;7.456;2022-08-14T14:40:44;8.3;;;7.4;;
37365;SDS011;23239;51.504;7.456;2022-08-14T14:45:44;5.7;;;5.2;;
37365;SDS011;23239;51.504;7.456;2022-08-14T14:50:44;4.6;;;4.2;;
37365;SDS011;23239;51.504;7.456;2022-08-14T14:55:44;4.6;;;4.2;;
37365;SDS011;23239;51.504;7.456;2022-08-14T15:00:44;4.4;;;4;;
37365;SDS011;23239;51.504;7.456;2022-08-14T15:05:44;4.7;;;4.3;;
37365;SDS011;23239;51.504;7.456;2022-08-14T15:10:44;5.3;;;4.4;;
37365;SDS011;23239;51.504;7.456;2022-08-14T15:15:44;4.2;;;3.8;;
37365;SDS011;23239;51.504;7.456;2022-08-14T15:20:44;4.4;;;4;;
37365;SDS011;23239;51.504;7.456;2022-08-14T15:25:44;4.4;;;3.9;;
37365;SDS011;23239;51.504;7.456;2022-08-14T15:30:44;4.9;;;3.9;;
37365;SDS011;23239;51.504;7.456;2022-08-14T15:35:44;4.4;;;4;;
37365;SDS011;23239;51.504;7.456;2022-08-14T15:40:44;4.3;;;3.9;;
37365;SDS011;23239;51.504;7.456;2022-08-14T15:45:44;4.6;;;4.2;;
37365;SDS011;23239;51.504;7.456;2022-08-14T15:50:44;5.1;;;4.4;;
37365;SDS011;23239;51.504;7.456;2022-08-14T15:55:44;5.7;;;5;;
37365;SDS011;23239;51.504;7.456;2022-08-14T16:00:44;4.9;;;4.5;;
37365;SDS011;23239;51.504;7.456;2022-08-14T16:05:44;5.7;;;4.6;;
37365;SDS011;23239;51.504;7.456;2022-08-14T16:10:44;5.5;;;4.6;;
37365;SDS011;23239;51.504;7.456;2022-08-14T16:15:44;4.9;;;3.8;;
37365;SDS011;23239;51.504;7.456;2022-08-14T16:20:44;5.4;;;4.4;;
37365;SDS011;23239;51.504;7.456;2022-08-14T16:25:44;4.9;;;4.1;;
37365;SDS011;23239;51.504;7.456;2022-08-14T16:30:44;5;;;4.1;;
37365;SDS011;23239;51.504;7.456;2022-08-14T16:35:44;4.3;;;4;;
37365;SDS011;23239;51.504;7.456;2022-08-14T16:40:44;5;;;4.5;;
37365;SDS011;23239;51.504;7.456;2022-08-14T16:45:44;4;;;3.7;;
37365;SDS011;23239;51.504;7.456;2022-08-14T16:50:44;4.3;;;3.9;;
37365;SDS011;23239;51.504;7.456;2022-08-14T16:55:44;4.9;;;4.2;;
37365;SDS011;23239;51.504;7.456;2022-08-14T17:00:44;4.6;;;4.2;;
37365;SDS011;23239;51.504;7.456;2022-08-14T17:05:44;4.2;;;3.9;;
37365;SDS011;23239;51.504;7.456;2022-08-14T17:11:00;6.8;;;5.2;;
37365;SDS011;23239;51.504;7.456;2022-08-14T17:15:45;4.4;;;4;;
37365;SDS011;23239;51.504;7.456;2022-08-14T17:20:44;4.5;;;4;;
37365;SDS011;23239;51.504;7.456;2022-08-14T17:25:44;4.2;;;3.8;;
37365;SDS011;23239;51.504;7.456;2022-08-14T17:30:48;4.8;;;4.2;;
37365;SDS011;23239;51.504;7.456;2022-08-14T17:35:44;4;;;3.7;;
37365;SDS011;23239;51.504;7.456;2022-08-14T17:40:44;4.3;;;3.9;;
37365;SDS011;23239;51.504;7.456;2022-08-14T17:45:44;4.8;;;4.1;;
37365;SDS011;23239;51.504;7.456;2022-08-14T17:50:44;4.5;;;4.1;;
37365;SDS011;23239;51.504;7.456;2022-08-14T17:55:44;5.6;;;4.4;;
37365;SDS011;23239;51.504;7.456;2022-08-14T18:00:45;4.7;;;4.1;;
37365;SDS011;23239;51.504;7.456;2022-08-14T18:05:45;5.6;;;4;;
37365;SDS011;23239;51.504;7.456;2022-08-14T18:10:44;6.3;;;4.8;;
37365;SDS011;23239;51.504;7.456;2022-08-14T18:15:44;6.1;;;4.9;;
37365;SDS011;23239;51.504;7.456;2022-08-14T18:20:44;5.4;;;4.9;;
37365;SDS011;23239;51.504;7.456;2022-08-14T18:25:46;5.9;;;4.9;;
37365;SDS011;23239;51.504;7.456;2022-08-14T18:30:44;5.7;;;5.1;;
37365;SDS011;23239;51.504;7.456;2022-08-14T18:35:45;7.1;;;5.1;;
37365;SDS011;23239;51.504;7.456;2022-08-14T18:40:44;7.5;;;5.6;;
37365;SDS011;23239;51.504;7.456;2022-08-14T18:45:56;8.1;;;5.6;;
37365;SDS011;23239;51.504;7.456;2022-08-14T18:50:46;5.8;;;5.3;;
37365;SDS011;23239;51.504;7.456;2022-08-14T18:55:46;6.2;;;5.4;;
37365;SDS011;23239;51.504;7.456;2022-08-14T19:00:45;4.7;;;4.2;;
37365;SDS011;23239;51.504;7.456;2022-08-14T19:05:55;4.5;;;4;;
37365;SDS011;23239;51.504;7.456;2022-08-14T19:10:45;5;;;4.2;;
37365;SDS011;23239;51.504;7.456;2022-08-14T19:15:44;5.4;;;4.4;;
37365;SDS011;23239;51.504;7.456;2022-08-14T19:20:45;4.9;;;3.8;;
37365;SDS011;23239;51.504;7.456;2022-08-14T19:25:47;6.6;;;4.1;;
37365;SDS011;23239;51.504;7.456;2022-08-14T19:30:44;5.4;;;4.3;;
37365;SDS011;23239;51.504;7.456;2022-08-14T19:35:44;5.9;;;4.7;;
37365;SDS011;23239;51.504;7.456;2022-08-14T19:40:44;5.8;;;4.8;;
37365;SDS011;23239;51.504;7.456;2022-08-14T19:45:44;8.7;;;5.3;;
37365;SDS011;23239;51.504;7.456;2022-08-14T19:50:44;7.6;;;5.2;;
37365;SDS011;23239;51.504;7.456;2022-08-14T19:55:53;6.9;;;4.8;;
37365;SDS011;23239;51.504;7.456;2022-08-14T20:00:53;6.9;;;5.2;;
37365;SDS011;23239;51.504;7.456;2022-08-14T20:05:44;7;;;4.7;;
37365;SDS011;23239;51.504;7.456;2022-08-14T20:10:44;6;;;4.4;;
37365;SDS011;23239;51.504;7.456;2022-08-14T20:15:44;6.5;;;5;;
37365;SDS011;23239;51.504;7.456;2022-08-14T20:20:44;8.4;;;5.1;;
37365;SDS011;23239;51.504;7.456;2022-08-14T20:25:45;7.3;;;4.9;;
37365;SDS011;23239;51.504;7.456;2022-08-14T20:30:44;5.6;;;4.5;;
37365;SDS011;23239;51.504;7.456;2022-08-14T20:35:45;5.9;;;4.2;;
37365;SDS011;23239;51.504;7.456;2022-08-14T20:40:46;6.3;;;5.1;;
37365;SDS011;23239;51.504;7.456;2022-08-14T20:45:46;6.2;;;4.2;;
37365;SDS011;23239;51.504;7.456;2022-08-14T20:50:44;5.1;;;4.4;;
37365;SDS011;23239;51.504;7.456;2022-08-14T20:55:44;5;;;4.5;;
37365;SDS011;23239;51.504;7.456;2022-08-14T21:00:44;7.3;;;5.4;;
37365;SDS011;23239;51.504;7.456;2022-08-14T21:05:44;5.9;;;4.7;;
37365;SDS011;23239;51.504;7.456;2022-08-14T21:10:44;6.2;;;4.8;;
37365;SDS011;23239;51.504;7.456;2022-08-14T21:15:44;7.3;;;5.3;;
37365;SDS011;23239;51.504;7.456;2022-08-14T21:20:44;7;;;5.3;;
37365;SDS011;23239;51.504;7.456;2022-08-14T21:25:44;6.1;;;5.5;;
37365;SDS011;23239;51.504;7.456;2022-08-14T21:30:44;7;;;5.4;;
37365;SDS011;23239;51.504;7.456;2022-08-14T21:35:44;5.8;;;5.2;;
37365;SDS011;23239;51.504;7.456;2022-08-14T21:40:50;7.3;;;5.3;;
37365;SDS011;23239;51.504;7.456;2022-08-14T21:45:45;7;;;4.8;;
37365;SDS011;23239;51.504;7.456;2022-08-14T21:50:45;5.9;;;5.3;;
37365;SDS011;23239;51.504;7.456;2022-08-14T21:55:44;6.7;;;5.2;;
37365;SDS011;23239;51.504;7.456;2022-08-14T22:00:44;5.5;;;4.4;;
37365;SDS011;23239;51.504;7.456;2022-08-14T22:05:45;5.5;;;4.6;;
37365;SDS011;23239;51.504;7.456;2022-08-14T22:10:45;6;;;4.8;;
37365;SDS011;23239;51.504;7.456;2022-08-14T22:15:44;6.1;;;4.8;;
37365;SDS011;23239;51.504;7.456;2022-08-14T22:20:44;6.1;;;4.9;;
37365;SDS011;23239;51.504;7.456;2022-08-14T22:25:44;5.9;;;5;;
37365;SDS011;23239;51.504;7.456;2022-08-14T22:30:44;6.3;;;5.2;;
37365;SDS011;23239;51.504;7.456;2022-08-14T22:35:44;5.5;;;5;;
37365;SDS011;23239;51.504;7.456;2022-08-14T22:40:44;7.6;;;4.8;;
37365;SDS011;23239;51.504;7.456;2022-08-14T22:45:44;5.9;;;5.3;;
37365;SDS011;23239;51.504;7.456;2022-08-14T22:50:44;5.4;;;4.9;;
37365;SDS011;23239;51.504;7.456;2022-08-14T22:55:44;5.3;;;4.8;;
37365;SDS011;23239;51.504;7.456;2022-08-14T23:00:44;5.2;;;4.7;;
37365;SDS011;23239;51.504;7.456;2022-08-14T23:05:44;6.4;;;5;;
37365;SDS011;23239;51.504;7.456;2022-08-14T23:10:44;5.2;;;4.7;;
37365;SDS011;23239;51.504;7.456;2022-08-14T23:15:44;5.8;;;5.2;;
37365;SDS011;23239;51.504;7.456;2022-08-14T23:20:44;5.8;;;4.8;;
37365;SDS011;23239;51.504;7.456;2022-08-14T23:25:44;5.8;;;5.2;;
37365;SDS011;23239;51.504;7.456;2022-08-14T23:30:44;7.6;;;5;;
37365;SDS011;23239;51.504;7.456;2022-08-14T23:35:44;6;;;5.2;;
37365;SDS011;23239;51.504;7.456;2022-08-14T23:40:44;6.4;;;5.6;;
37365;SDS011;23239;51.504;7.456;2022-08-14T23:45:45;5.7;;;5.1;;
37365;SDS011;23239;51.504;7.456;2022-08-14T23:50:44;6.7;;;5.4;;
37365;SDS011;23239;51.504;7.456;2022-08-14T23:55:44;10.1;;;5.7;;
